Tinogasta, Argentina
Current Conditions -  °F | °C
As of 5:00 PM on Friday 31 Oct 2014 (Local Time) from SANT Reporting Station
Scattered Clouds Scattered Clouds  
Wind Chill: 88°   Ceiling: Unl
Heat Index: 90°   Visibility: 5mi
Dew Point: 66°   Wind: 9mph
Humidity: 49%   Direction: 180°S
Pressure: 29.74"   Gusts: NA
Location:  28.07°S, 67.56°W
Report Text: SANT 312000Z 18008KT 8000 SCT035 FEW040TCU 31/19 Q1007
Loading
Personal Weather Stations






























Interactive Weather Map
Tropical Storm Tracking
New forecast layout! Learn more

10-Day Weather Forecast

Advertisements
Track Severe Weather on mobile